PLZ weather

Port Elizabeth Airport
Port Elizabeth, Eastern Cape, South Africa

Public forecast

Using degrees Celsius for public forecast. Weather courtesy of forecast.io.

METAR (pilot weather report)

Retrieved 2019/07/17 05:00 UTC (35 minutes ago):

FAPE 170500Z 35003KT CAVOK 09/05 Q1015 NOSIG

TAF (pilot weather forecast)

Forecast is more than 12 hours old.

Retrieved 2019/07/16 00:00 UTC (1 day ago):

TAF FAPE 162200Z 1700/1724 31005KT CAVOK TX22/1712Z TN07/1704Z PROB30 TEMPO 1706/1709 31008G20KT BECMG 1709/1711 23010KT BECMG 1718/1720 01008KT